createdAt,value
2017-01-02T10:00:01.830Z,95.36
2017-01-02T10:01:01.820Z,95.17
2017-01-02T10:02:01.808Z,94.51
2017-01-02T10:03:01.795Z,94.6
2017-01-02T10:04:01.783Z,94.32
2017-01-02T10:05:01.770Z,95.17
2017-01-02T10:06:01.757Z,94.7
2017-01-02T10:07:02.131Z,94.23
2017-01-02T10:08:01.731Z,94.7
2017-01-02T10:09:01.719Z,94.98
2017-01-02T10:10:01.707Z,94.7
2017-01-02T10:11:01.701Z,94.32
2017-01-02T10:12:01.683Z,94.98
2017-01-02T10:13:01.671Z,95.07
2017-01-02T10:14:01.657Z,95.74
2017-01-02T10:15:01.645Z,95.45
2017-01-02T10:16:01.633Z,95.07
2017-01-02T10:17:01.622Z,94.32
2017-01-02T10:18:01.609Z,94.51
2017-01-02T10:19:01.598Z,94.23
2017-01-02T10:20:01.583Z,94.13
2017-01-02T10:21:01.571Z,94.04
2017-01-02T10:22:01.560Z,93.99
2017-01-02T10:23:01.549Z,93.51
2017-01-02T10:24:01.536Z,94.37
2017-01-02T10:25:01.525Z,94.42
2017-01-02T10:26:01.513Z,94.18
2017-01-02T10:27:01.497Z,93.99
2017-01-02T10:28:01.486Z,92.94
2017-01-02T10:29:01.476Z,93.04
2017-01-02T10:30:01.465Z,93.61
2017-01-02T10:31:01.457Z,93.23
2017-01-02T10:32:01.437Z,93.04
2017-01-02T10:33:01.424Z,93.41
2017-01-02T10:34:01.413Z,93.32
2017-01-02T10:35:01.403Z,93.04
2017-01-02T10:36:01.392Z,92.57
2017-01-02T10:37:01.378Z,92.66
2017-01-02T10:38:01.365Z,91.99
2017-01-02T10:39:01.354Z,92.47
2017-01-02T10:40:01.343Z,92.38
2017-01-02T10:41:01.329Z,92.38
2017-01-02T10:42:01.317Z,92.38
2017-01-02T10:43:01.306Z,92.38
2017-01-02T10:44:01.293Z,92.66
2017-01-02T10:45:01.282Z,92.76
2017-01-02T10:46:01.269Z,92.57
2017-01-02T10:47:01.258Z,91.85
2017-01-02T10:48:01.245Z,92.04
2017-01-02T10:49:01.233Z,92.42
2017-01-02T10:50:01.224Z,91.56
2017-01-02T10:51:01.212Z,91.09
2017-01-02T10:52:01.199Z,91
2017-01-02T10:53:01.189Z,90.81
2017-01-02T10:54:01.565Z,90.14
2017-01-02T10:55:01.166Z,89.86
2017-01-02T10:56:01.154Z,90.14
2017-01-02T10:57:01.144Z,89.76
2017-01-02T10:58:01.132Z,90.05
2017-01-02T10:59:01.121Z,89.58
2017-01-02T11:00:01.110Z,89.86
2017-01-02T11:01:01.097Z,89.67
2017-01-02T11:02:01.088Z,90.05
2017-01-02T11:03:01.078Z,88.72
2017-01-02T11:04:01.064Z,88.91
2017-01-02T11:05:01.053Z,88.43
2017-01-02T11:06:01.041Z,88.72
2017-01-02T11:07:01.034Z,89.86
2017-01-02T11:08:01.019Z,90.14
2017-01-02T11:09:01.008Z,90.52
2017-01-02T11:10:00.999Z,90.52
2017-01-02T11:11:01.012Z,89.95
2017-01-02T11:12:00.978Z,90.76
2017-01-02T11:13:00.962Z,90.47
2017-01-02T11:14:00.951Z,90.57
2017-01-02T11:15:00.942Z,90.28
2017-01-02T11:16:00.930Z,89.9
2017-01-02T11:17:00.918Z,90
2017-01-02T11:18:00.908Z,89.33
2017-01-02T11:19:00.898Z,88.76
2017-01-02T11:20:00.885Z,89.24
2017-01-02T11:21:00.881Z,89.24
2017-01-02T11:22:00.866Z,88.57
2017-01-02T11:23:00.854Z,89.24
2017-01-02T11:24:00.841Z,88.95
2017-01-02T11:25:00.833Z,88.95
2017-01-02T11:26:00.824Z,88.76
2017-01-02T11:27:00.809Z,88.67
2017-01-02T11:28:00.797Z,88.86
2017-01-02T11:29:00.786Z,88.67
2017-01-02T11:30:00.776Z,88.67
2017-01-02T11:31:00.765Z,88.76
2017-01-02T11:32:00.755Z,88.1
2017-01-02T11:33:00.748Z,88.2
2017-01-02T11:34:00.733Z,88.67
2017-01-02T11:35:00.722Z,88.67
2017-01-02T11:36:00.713Z,88.95
2017-01-02T11:37:00.703Z,88.48
2017-01-02T11:38:00.692Z,88.76
2017-01-02T11:39:00.683Z,89.2
2017-01-02T11:40:00.668Z,89.2
2017-01-02T11:41:00.657Z,88.91
2017-01-02T11:42:00.645Z,88.91
2017-01-02T11:43:00.634Z,88.53
2017-01-02T11:44:00.624Z,87.77
2017-01-02T11:45:00.615Z,88.72
2017-01-02T11:46:00.600Z,88.62
2017-01-02T11:47:00.594Z,87.68
2017-01-02T11:48:00.578Z,88.34
2017-01-02T11:49:00.567Z,88.72
2017-01-02T11:50:00.557Z,89
2017-01-02T11:51:00.544Z,89
2017-01-02T11:52:00.533Z,89.58
2017-01-02T11:53:00.521Z,90.14
2017-01-02T11:54:00.511Z,90.14
2017-01-02T11:55:00.510Z,90.48
2017-01-02T11:56:00.487Z,90.57
2017-01-02T11:57:00.474Z,90.48
2017-01-02T11:58:00.464Z,90.86
2017-01-02T11:59:00.453Z,90.86
2017-01-02T12:00:00.441Z,90.86
2017-01-02T12:01:00.428Z,90.76
2017-01-02T12:02:00.416Z,91.52
2017-01-02T12:03:00.409Z,91.09
2017-01-02T12:04:00.393Z,91.14
2017-01-02T12:05:00.382Z,90.86
2017-01-02T12:06:00.371Z,91.14
2017-01-02T12:07:00.358Z,91.24
2017-01-02T12:08:00.347Z,91.8
2017-01-02T12:09:00.338Z,91.61
2017-01-02T12:10:00.324Z,91.33
2017-01-02T12:11:00.312Z,91.71
2017-01-02T12:12:00.302Z,91.52
2017-01-02T12:13:00.287Z,92.04
2017-01-02T12:14:00.278Z,91.99
2017-01-02T12:15:00.266Z,91.66
2017-01-02T12:16:00.253Z,91.19
2017-01-02T12:17:00.244Z,91.33
2017-01-02T12:18:00.230Z,91.33
2017-01-02T12:19:00.217Z,90.67
2017-01-02T12:20:00.207Z,90.86
2017-01-02T12:21:00.195Z,90.67
2017-01-02T12:22:00.181Z,91.47
2017-01-02T12:23:00.174Z,91.94
2017-01-02T12:24:00.160Z,91.09
2017-01-02T12:25:00.147Z,91.19
2017-01-02T12:26:00.135Z,91.56
2017-01-02T12:27:00.134Z,90.71
2017-01-02T12:28:00.111Z,91.19
2017-01-02T12:29:00.100Z,91.38
2017-01-02T12:30:00.090Z,91.28
2017-01-02T12:31:00.078Z,91.19
2017-01-02T12:32:00.064Z,91.28
2017-01-02T12:33:00.054Z,91
2017-01-02T12:34:00.045Z,91.28
2017-01-02T12:35:00.029Z,90.71
2017-01-02T12:36:00.047Z,90.81
2017-01-02T12:37:00.010Z,90.05
2017-01-02T12:38:00.000Z,90.52
2017-01-02T12:38:59.983Z,90.14
2017-01-02T12:39:59.972Z,90.43
2017-01-02T12:40:59.964Z,90.52
2017-01-02T12:41:59.948Z,91.09
2017-01-02T12:42:59.940Z,90.52
2017-01-02T12:43:59.928Z,91.09
2017-01-02T12:44:59.915Z,90.62
2017-01-02T12:45:59.904Z,90.52
2017-01-02T12:47:00.278Z,90.33
2017-01-02T12:47:59.880Z,90.62
2017-01-02T12:48:59.876Z,90.62
2017-01-02T12:49:59.861Z,90.52
2017-01-02T12:50:59.845Z,89.86
2017-01-02T12:51:59.835Z,89.86
2017-01-02T12:52:59.824Z,90.9
2017-01-02T12:53:59.813Z,89.95
2017-01-02T12:54:59.803Z,90.05
2017-01-02T12:55:59.793Z,89.86
2017-01-02T12:56:59.781Z,90.14
2017-01-02T12:57:59.769Z,90.33
2017-01-02T12:58:59.757Z,90.05
2017-01-02T12:59:59.747Z,90.14
2017-01-02T13:00:59.735Z,89.58
2017-01-02T13:01:59.727Z,89.67
2017-01-02T13:02:59.715Z,89.86
2017-01-02T13:03:59.701Z,90.05
2017-01-02T13:04:59.692Z,89.76
2017-01-02T13:05:59.679Z,89.29
2017-01-02T13:06:59.667Z,89
2017-01-02T13:07:59.656Z,90.14
2017-01-02T13:08:59.645Z,89.2
2017-01-02T13:09:59.633Z,89.39
2017-01-02T13:10:59.624Z,89.29
2017-01-02T13:11:59.615Z,88.62
2017-01-02T13:12:59.599Z,88.15
2017-01-02T13:13:59.589Z,89.1
2017-01-02T13:14:59.577Z,89.58
2017-01-02T13:15:59.566Z,88.53
2017-01-02T13:16:59.558Z,88.91
2017-01-02T13:17:59.544Z,89.29
2017-01-02T13:18:59.532Z,88.62
2017-01-02T13:19:59.519Z,89
2017-01-02T13:20:59.509Z,88.91
2017-01-02T13:21:59.497Z,89.1
2017-01-02T13:22:59.487Z,88.72
2017-01-02T13:23:59.480Z,88.53
2017-01-02T13:24:59.465Z,88.43
2017-01-02T13:25:59.453Z,88.81
2017-01-02T13:26:59.439Z,89.29
2017-01-02T13:27:59.428Z,89.2
2017-01-02T13:28:59.418Z,89.29
2017-01-02T13:29:59.404Z,89.06
2017-01-02T13:30:59.392Z,89.15
2017-01-02T13:31:59.381Z,88.58
2017-01-02T13:32:59.370Z,89.62
2017-01-02T13:33:59.360Z,90.1
2017-01-02T13:34:59.347Z,90.1
2017-01-02T13:35:59.336Z,90.67
2017-01-02T13:36:59.321Z,91.99
2017-01-02T13:37:59.312Z,92.18
2017-01-02T13:38:59.296Z,93.04
2017-01-02T13:39:59.287Z,93.46
2017-01-02T13:40:59.299Z,93.32
2017-01-02T13:41:59.264Z,93.65
2017-01-02T13:42:59.254Z,94.37
2017-01-02T13:43:59.237Z,94.32
2017-01-02T13:44:59.225Z,94.6
2017-01-02T13:45:59.210Z,94.13
2017-01-02T13:46:59.200Z,93.75
2017-01-02T13:47:59.213Z,93.94
2017-01-02T13:48:59.176Z,93.94
2017-01-02T13:49:59.163Z,94.13
2017-01-02T13:50:59.150Z,93.84
2017-01-02T13:51:59.141Z,93.37
2017-01-02T13:52:59.127Z,94.23
2017-01-02T13:53:59.115Z,93.84
2017-01-02T13:54:59.102Z,94.23
2017-01-02T13:55:59.091Z,94.23
2017-01-02T13:56:59.077Z,94.42
2017-01-02T13:57:59.065Z,94.51
2017-01-02T13:58:59.441Z,94.98
2017-01-02T13:59:59.041Z,95.26
2017-01-02T14:00:59.027Z,95.45
2017-01-02T14:01:59.015Z,95.26
2017-01-02T14:02:59.004Z,95.55
2017-01-02T14:03:58.991Z,95.45
2017-01-02T14:04:58.980Z,96.41
2017-01-02T14:05:58.963Z,96.78
2017-01-02T14:06:58.951Z,96.41
2017-01-02T14:07:59.328Z,96.12
2017-01-02T14:08:58.928Z,96.97
2017-01-02T14:09:58.913Z,96.59
2017-01-02T14:10:58.903Z,96.69
2017-01-02T14:11:58.889Z,97.26
2017-01-02T14:12:58.880Z,97.45
2017-01-02T14:13:58.866Z,97.54
2017-01-02T14:14:58.855Z,97.54
2017-01-02T14:15:58.839Z,97.83
2017-01-02T14:16:58.828Z,97.64
2017-01-02T14:17:58.813Z,97.54
2017-01-02T14:18:58.800Z,97.45
2017-01-02T14:19:58.789Z,97.73
2017-01-02T14:20:58.775Z,97.92
2017-01-02T14:21:58.763Z,97.54
2017-01-02T14:22:58.751Z,97.92
2017-01-02T14:23:58.740Z,97.92
2017-01-02T14:24:58.726Z,97.83
2017-01-02T14:25:58.713Z,97.64
2017-01-02T14:26:58.702Z,97.92
2017-01-02T14:27:58.688Z,97.83
2017-01-02T14:28:58.677Z,98.02
2017-01-02T14:29:58.661Z,97.83
2017-01-02T14:30:58.653Z,97.54
2017-01-02T14:31:58.636Z,97.64
2017-01-02T14:32:58.625Z,97.64
2017-01-02T14:33:58.612Z,97.83
2017-01-02T14:34:58.600Z,97.54
2017-01-02T14:35:58.587Z,97.45
2017-01-02T14:36:58.965Z,97.16
2017-01-02T14:37:58.563Z,97.64
2017-01-02T14:38:58.549Z,98.3
2017-01-02T14:39:58.539Z,97.92
2017-01-02T14:40:58.528Z,97.45
2017-01-02T14:41:58.511Z,97.73
2017-01-02T14:42:58.501Z,98.11
2017-01-02T14:43:58.485Z,97.64
2017-01-02T14:44:58.479Z,97.45
2017-01-02T14:45:58.460Z,98.11
2017-01-02T14:46:58.449Z,97.83
2017-01-02T14:47:58.436Z,97.64
2017-01-02T14:48:58.424Z,97.83
2017-01-02T14:49:58.410Z,98.21
2017-01-02T14:50:58.403Z,98.3
2017-01-02T14:51:58.386Z,97.35
2017-01-02T14:52:58.373Z,98.3
2017-01-02T14:53:58.360Z,97.64
2017-01-02T14:54:58.374Z,97.73
2017-01-02T14:55:58.335Z,97.64
2017-01-02T14:56:58.323Z,98.21
2017-01-02T14:57:58.312Z,97.73
2017-01-02T14:58:58.299Z,97.64
2017-01-02T14:59:58.285Z,97.92
2017-01-02T15:00:58.272Z,97.83
2017-01-02T15:01:58.260Z,97.83
2017-01-02T15:02:58.246Z,97.54
2017-01-02T15:03:58.234Z,97.45
2017-01-02T15:04:58.221Z,96.78
2017-01-02T15:05:58.207Z,96.59
2017-01-02T15:06:58.197Z,96.69
2017-01-02T15:07:58.183Z,96.07
2017-01-02T15:08:58.170Z,95.5
2017-01-02T15:09:58.183Z,95.31
2017-01-02T15:10:58.147Z,95.31
2017-01-02T15:11:58.137Z,95.22
2017-01-02T15:12:58.122Z,94.93
2017-01-02T15:13:58.105Z,95.22
2017-01-02T15:14:58.092Z,95.6
2017-01-02T15:15:58.081Z,95.31
2017-01-02T15:16:58.069Z,95.36
2017-01-02T15:17:58.053Z,95.93
2017-01-02T15:18:58.044Z,95.17
2017-01-02T15:19:58.031Z,96.12
2017-01-02T15:20:58.014Z,95.45
2017-01-02T15:21:58.018Z,96.02
2017-01-02T15:22:57.991Z,96.02
2017-01-02T15:23:57.977Z,96.02
2017-01-02T15:24:57.962Z,95.83
2017-01-02T15:25:57.948Z,96.12
2017-01-02T15:26:57.935Z,95.64
2017-01-02T15:27:57.923Z,96.21
2017-01-02T15:28:57.909Z,96.21
2017-01-02T15:29:57.923Z,96.5
2017-01-02T15:30:57.884Z,96.59
2017-01-02T15:31:57.867Z,96.69
2017-01-02T15:32:57.853Z,97.16
2017-01-02T15:33:57.842Z,96.54
2017-01-02T15:34:57.829Z,96.69
2017-01-02T15:35:57.813Z,97.2
2017-01-02T15:36:57.798Z,97.16
2017-01-02T15:37:57.790Z,97.16
2017-01-02T15:38:57.772Z,97.49
2017-01-02T15:39:57.757Z,97.49
2017-01-02T15:40:58.134Z,97.39
2017-01-02T15:41:57.737Z,97.68
2017-01-02T15:42:57.717Z,97.68
2017-01-02T15:43:57.702Z,97.2
2017-01-02T15:44:57.690Z,97.68
2017-01-02T15:45:57.676Z,98.63
2017-01-02T15:46:57.660Z,97.96
2017-01-02T15:47:57.646Z,98.63
2017-01-02T15:48:57.635Z,98.53
2017-01-02T15:49:57.618Z,97.49
2017-01-02T15:50:57.604Z,97.68
2017-01-02T15:51:57.593Z,97.68
2017-01-02T15:52:57.577Z,97.49
2017-01-02T15:53:57.565Z,97.49
2017-01-02T15:54:57.935Z,97.39
2017-01-02T15:55:57.535Z,97.87
2017-01-02T15:56:57.522Z,98.72
2017-01-02T15:57:57.508Z,97.87
2017-01-02T15:58:57.493Z,98.63
2017-01-02T15:59:57.480Z,97.87
2017-01-02T16:00:57.853Z,98.63
2017-01-02T16:01:57.451Z,97.87
2017-01-02T16:02:57.438Z,97.39
2017-01-02T16:03:57.422Z,97.68
2017-01-02T16:04:57.408Z,97.77
2017-01-02T16:05:57.394Z,97.68
2017-01-02T16:06:57.382Z,97.11
2017-01-02T16:07:57.368Z,97.3
2017-01-02T16:08:57.352Z,97.39
2017-01-02T16:09:57.338Z,97.11
2017-01-02T16:10:57.324Z,97.3
2017-01-02T16:11:57.309Z,97.11
2017-01-02T16:12:57.295Z,96.92
2017-01-02T16:13:57.282Z,97.49
2017-01-02T16:14:57.268Z,97.11
2017-01-02T16:15:57.253Z,96.92
2017-01-02T16:16:57.244Z,97.11
2017-01-02T16:17:57.227Z,97.3
2017-01-02T16:18:57.211Z,96.69
2017-01-02T16:19:57.197Z,96.83
2017-01-02T16:20:57.183Z,97.2
2017-01-02T16:21:57.174Z,97.25
2017-01-02T16:22:57.156Z,96.69
2017-01-02T16:23:57.140Z,97.16
2017-01-02T16:24:57.127Z,97.53
2017-01-02T16:25:57.503Z,97.34
2017-01-02T16:26:57.097Z,97.91
2017-01-02T16:27:57.082Z,97.63
2017-01-02T16:28:57.071Z,97.72
2017-01-02T16:29:57.052Z,98.1
2017-01-02T16:30:57.040Z,98.29
2017-01-02T16:31:57.027Z,98.77
2017-01-02T16:32:57.011Z,97.44
2017-01-02T16:33:56.996Z,97.25
2017-01-02T16:34:56.984Z,97.44
2017-01-02T16:35:56.968Z,96.97
2017-01-02T16:36:56.952Z,96.97
2017-01-02T16:37:56.937Z,97.06
2017-01-02T16:38:56.924Z,96.59
2017-01-02T16:39:56.911Z,97.25
2017-01-02T16:40:56.928Z,97.25
2017-01-02T16:41:56.879Z,96.97
2017-01-02T16:42:56.866Z,97.16
2017-01-02T16:43:56.851Z,96.97
2017-01-02T16:44:56.836Z,97.06
2017-01-02T16:45:56.821Z,96.59
2017-01-02T16:46:56.811Z,97.25
2017-01-02T16:47:56.792Z,96.69
2017-01-02T16:48:56.779Z,97.25
2017-01-02T16:49:56.765Z,96.59
2017-01-02T16:50:56.748Z,97.16
2017-01-02T16:51:56.736Z,96.21
2017-01-02T16:52:56.717Z,96.69
2017-01-02T16:53:56.705Z,96.69
2017-01-02T16:54:56.689Z,96.88
2017-01-02T16:55:56.674Z,97.06
2017-01-02T16:56:56.665Z,96.88
2017-01-02T16:57:56.644Z,97.16
2017-01-02T16:58:56.630Z,97.44
2017-01-02T16:59:56.614Z,97.63
2017-01-02T17:00:56.598Z,97.63
2017-01-02T17:01:56.587Z,97.25
2017-01-02T17:02:56.568Z,97.53
2017-01-02T17:03:56.555Z,97.77
2017-01-02T17:04:56.545Z,97.58
2017-01-02T17:05:56.534Z,97.58
2017-01-02T17:06:56.509Z,96.92
2017-01-02T17:07:56.495Z,97.3
2017-01-02T17:08:56.482Z,97.58
2017-01-02T17:09:56.464Z,97.49
2017-01-02T17:10:56.448Z,97.86
2017-01-02T17:11:56.435Z,97.58
2017-01-02T17:12:56.422Z,98.05
2017-01-02T17:13:56.404Z,97.96
2017-01-02T17:14:56.389Z,97.86
2017-01-02T17:15:56.374Z,97.49
2017-01-02T17:16:56.360Z,97.49
2017-01-02T17:17:56.342Z,97.77
2017-01-02T17:18:56.328Z,97.58
2017-01-02T17:19:56.314Z,97.39
2017-01-02T17:20:56.299Z,98.05
2017-01-02T17:21:56.283Z,97.39
2017-01-02T17:22:56.268Z,97.39
2017-01-02T17:23:56.251Z,98.05
2017-01-02T17:24:56.238Z,97.58
2017-01-02T17:25:56.221Z,97.77
2017-01-02T17:26:56.204Z,98.05
2017-01-02T17:27:56.191Z,98.33
2017-01-02T17:28:56.175Z,98.43
2017-01-02T17:29:56.165Z,98.24
2017-01-02T17:30:56.148Z,98.52
2017-01-02T17:31:56.130Z,98.9
2017-01-02T17:32:56.115Z,98.43
2017-01-02T17:33:56.097Z,97.96
2017-01-02T17:34:56.085Z,98.81
2017-01-02T17:35:56.069Z,98.14
2017-01-02T17:36:56.053Z,99
2017-01-02T17:37:56.037Z,98.71
2017-01-02T17:38:56.024Z,98.52
2017-01-02T17:39:56.004Z,97.96
2017-01-02T17:40:55.991Z,97.77
2017-01-02T17:41:55.976Z,98.71
2017-01-02T17:42:55.962Z,98.71
2017-01-02T17:43:55.944Z,98.71
2017-01-02T17:44:55.931Z,97.96
2017-01-02T17:45:55.917Z,97.77
2017-01-02T17:46:55.897Z,98.43
2017-01-02T17:47:55.884Z,97.77
2017-01-02T17:48:55.868Z,97.86
2017-01-02T17:49:55.852Z,97.77
2017-01-02T17:50:55.836Z,98.9
2017-01-02T17:51:55.821Z,98.33
2017-01-02T17:52:55.805Z,98.33
2017-01-02T17:53:55.789Z,98.81
2017-01-02T17:54:55.778Z,98.24
2017-01-02T17:55:55.760Z,97.77
2017-01-02T17:56:55.744Z,97.96
2017-01-02T17:57:55.728Z,98.43
2017-01-02T17:58:55.713Z,97.77
2017-01-02T17:59:56.086Z,98.43
2017-01-02T18:00:55.683Z,97.77
2017-01-02T18:01:55.668Z,98.43
2017-01-02T18:02:55.654Z,98.33
2017-01-02T18:03:56.023Z,97.58
2017-01-02T18:04:55.620Z,98.24
2017-01-02T18:05:55.604Z,98.33
2017-01-02T18:06:55.589Z,97.96
2017-01-02T18:07:55.574Z,97.96
2017-01-02T18:08:55.559Z,97.77
2017-01-02T18:09:55.542Z,98.62
2017-01-02T18:10:55.527Z,97.58
2017-01-02T18:11:55.542Z,97.67
2017-01-02T18:12:55.496Z,98.14
2017-01-02T18:13:55.480Z,98.33
2017-01-02T18:14:55.465Z,97.77
2017-01-02T18:15:55.448Z,98.33
2017-01-02T18:16:55.433Z,98.33
2017-01-02T18:17:55.416Z,98.43
2017-01-02T18:18:55.790Z,99.19
2017-01-02T18:19:55.386Z,98.71
2017-01-02T18:20:55.371Z,99.09
2017-01-02T18:21:55.354Z,98.52
2017-01-02T18:22:55.339Z,98.62
2017-01-02T18:23:55.327Z,99.38
2017-01-02T18:24:55.308Z,98.33
2017-01-02T18:25:55.293Z,99.33
2017-01-02T18:26:55.276Z,99.28
2017-01-02T18:27:55.261Z,98.52
2017-01-02T18:28:55.245Z,98.81
2017-01-02T18:29:55.230Z,99.14
2017-01-02T18:30:55.214Z,98.33
2017-01-02T18:31:55.203Z,99.28
2017-01-02T18:32:55.181Z,99.19
2017-01-02T18:33:55.165Z,99.23
2017-01-02T18:34:55.150Z,99.04
2017-01-02T18:35:55.133Z,98.81
2017-01-02T18:36:55.125Z,99.23
2017-01-02T18:37:55.101Z,99
2017-01-02T18:38:55.090Z,99.42
2017-01-02T18:39:55.074Z,98.76
2017-01-02T18:40:55.446Z,99.14
2017-01-02T18:41:55.039Z,98.43
2017-01-02T18:42:55.024Z,98.66
2017-01-02T18:43:55.009Z,98.85
2017-01-02T18:44:54.993Z,99.04
2017-01-02T18:45:54.978Z,98.76
2017-01-02T18:46:54.964Z,98.76
2017-01-02T18:47:54.947Z,98.85
2017-01-02T18:48:54.929Z,98.76
2017-01-02T18:49:54.914Z,98.38
2017-01-02T18:50:54.899Z,98.95
2017-01-02T18:51:54.882Z,98.38
2017-01-02T18:52:54.867Z,98.66
2017-01-02T18:53:54.853Z,98.28
2017-01-02T18:54:54.869Z,99.14
2017-01-02T18:55:54.819Z,98.28
2017-01-02T18:56:54.806Z,99.23
2017-01-02T18:57:54.788Z,99.23
2017-01-02T18:58:54.773Z,98.76
2017-01-02T18:59:54.757Z,98.85
2017-01-02T19:00:54.741Z,98.66
2017-01-02T19:01:54.729Z,98.95
2017-01-02T19:02:54.709Z,98.47
2017-01-02T19:03:54.693Z,98.47
2017-01-02T19:04:54.679Z,98.95
2017-01-02T19:05:54.662Z,99.42
2017-01-02T19:06:54.675Z,99.23
2017-01-02T19:07:54.632Z,99.42
2017-01-02T19:08:54.614Z,99.23
2017-01-02T19:09:54.599Z,99.04
2017-01-02T19:10:54.583Z,98.76
2017-01-02T19:11:54.567Z,99.23
2017-01-02T19:12:54.552Z,98.76
2017-01-02T19:13:54.536Z,99.04
2017-01-02T19:14:54.524Z,99.04
2017-01-02T19:15:54.504Z,98.38
2017-01-02T19:16:54.489Z,98.28
2017-01-02T19:17:54.472Z,98.28
2017-01-02T19:18:54.460Z,98.76
2017-01-02T19:19:54.445Z,99.04
2017-01-02T19:20:54.810Z,98.85
2017-01-02T19:21:54.409Z,98.85
2017-01-02T19:22:54.392Z,98.76
2017-01-02T19:23:54.378Z,98.85
2017-01-02T19:24:54.363Z,99.14
2017-01-02T19:25:54.346Z,98.76
2017-01-02T19:26:54.329Z,99.14
2017-01-02T19:27:54.317Z,98.76
2017-01-02T19:28:54.299Z,98.95
2017-01-02T19:29:54.281Z,99.14
2017-01-02T19:30:54.267Z,98.76
2017-01-02T19:31:54.638Z,99.52
2017-01-02T19:32:54.235Z,99.23
2017-01-02T19:33:54.217Z,98.76
2017-01-02T19:34:54.202Z,99.04
2017-01-02T19:35:54.188Z,98.95
2017-01-02T19:36:54.174Z,99.61
2017-01-02T19:37:54.156Z,99.52
2017-01-02T19:38:54.138Z,99.71
2017-01-02T19:39:54.124Z,98.95
2017-01-02T19:40:54.108Z,98.95
2017-01-02T19:41:54.091Z,99.23
2017-01-02T19:42:54.081Z,99.14
2017-01-02T19:43:54.057Z,99.14
2017-01-02T19:44:54.430Z,98.95
2017-01-02T19:45:54.025Z,98.95
2017-01-02T19:46:54.010Z,98.95
2017-01-02T19:47:53.994Z,99.14
2017-01-02T19:48:53.989Z,99.04
2017-01-02T19:49:53.962Z,99.23
2017-01-02T19:50:53.962Z,98.38
2017-01-02T19:51:53.928Z,98.85
2017-01-02T19:52:53.925Z,99.71
2017-01-02T19:53:53.899Z,98.76
2017-01-02T19:54:53.883Z,99.8
2017-01-02T19:55:53.883Z,99.61
2017-01-02T19:56:53.852Z,99.33
2017-01-02T19:57:53.844Z,99.99
2017-01-02T19:58:53.836Z,99.99
2017-01-02T19:59:53.802Z,99.99
2017-01-02T20:00:53.789Z,99.99
2017-01-02T20:01:53.803Z,99.99
2017-01-02T20:02:53.763Z,99.99
2017-01-02T20:03:53.762Z,99.99
2017-01-02T20:04:53.756Z,99.99
2017-01-02T20:05:53.703Z,99.99
2017-01-02T20:06:53.692Z,99.99
2017-01-02T20:07:54.073Z,99.99
2017-01-02T20:08:53.666Z,99.99
2017-01-02T20:09:53.670Z,99.99
2017-01-02T20:10:53.622Z,99.99
2017-01-02T20:11:53.606Z,99.99
2017-01-02T20:12:53.596Z,99.99
2017-01-02T20:13:53.576Z,99.99
2017-01-02T20:14:53.558Z,99.99
2017-01-02T20:15:53.566Z,99.99
2017-01-02T20:16:53.552Z,99.99
2017-01-02T20:17:53.509Z,99.99
2017-01-02T20:18:53.530Z,99.99
2017-01-02T20:19:53.514Z,99.99
2017-01-02T20:20:53.493Z,99.61
2017-01-02T20:21:53.444Z,99.42
2017-01-02T20:22:53.677Z,99.61
2017-01-02T20:23:53.411Z,99.99
2017-01-02T20:24:53.441Z,99.99
2017-01-02T20:25:53.404Z,99.99
2017-01-02T20:26:53.363Z,99.42
2017-01-02T20:27:53.357Z,99.99
2017-01-02T20:28:53.350Z,99.99
2017-01-02T20:29:53.314Z,99.99
2017-01-02T20:30:53.315Z,99.99
2017-01-02T20:31:53.334Z,99.61
2017-01-02T20:32:53.304Z,99.42
2017-01-02T20:33:53.271Z,99.52
2017-01-02T20:34:53.241Z,99.99
2017-01-02T20:35:53.219Z,99.99
2017-01-02T20:36:53.219Z,99.71
2017-01-02T20:37:53.196Z,99.99
2017-01-02T20:38:53.173Z,99.71
2017-01-02T20:39:53.156Z,99.42
2017-01-02T20:40:53.150Z,99.99
2017-01-02T20:41:53.132Z,99.71
2017-01-02T20:42:53.103Z,99.71
2017-01-02T20:43:53.098Z,99.61
2017-01-02T20:44:53.085Z,99.71
2017-01-02T20:45:53.085Z,99.52
2017-01-02T20:46:53.052Z,99.99
2017-01-02T20:47:53.034Z,99.42
2017-01-02T20:48:53.019Z,99.99
2017-01-02T20:49:52.997Z,99.42
2017-01-02T20:50:52.986Z,99.99
2017-01-02T20:51:52.961Z,99.89
2017-01-02T20:52:52.956Z,99.99
2017-01-02T20:53:52.929Z,99.99
2017-01-02T20:54:52.930Z,99.71
2017-01-02T20:55:52.900Z,99.99
2017-01-02T20:56:52.891Z,99.8
2017-01-02T20:57:52.863Z,99.8
2017-01-02T20:58:52.845Z,99.89
2017-01-02T20:59:52.829Z,99.89
2017-01-02T21:00:52.816Z,99.8
2017-01-02T21:01:52.795Z,99.99
2017-01-02T21:02:52.780Z,99.61
2017-01-02T21:03:52.765Z,99.99
2017-01-02T21:04:52.756Z,99.99
2017-01-02T21:05:52.733Z,99.99
2017-01-02T21:06:52.716Z,99.99
2017-01-02T21:07:52.697Z,99.89
2017-01-02T21:08:52.681Z,99.99
2017-01-02T21:09:52.675Z,99.99
2017-01-02T21:10:52.652Z,99.99
2017-01-02T21:11:52.634Z,99.99
2017-01-02T21:12:52.616Z,99.99
2017-01-02T21:13:52.602Z,99.99
2017-01-02T21:14:52.588Z,99.42
2017-01-02T21:15:52.569Z,99.61
2017-01-02T21:16:52.552Z,99.42
2017-01-02T21:17:52.536Z,99.8
2017-01-02T21:18:52.521Z,99.99
2017-01-02T21:19:52.502Z,99.61
2017-01-02T21:20:52.487Z,99.99
2017-01-02T21:21:52.474Z,99.14
2017-01-02T21:22:52.454Z,99.61
2017-01-02T21:23:52.438Z,99.52
2017-01-02T21:24:52.423Z,99.14
2017-01-02T21:25:52.404Z,99.8
2017-01-02T21:26:52.390Z,99.8
2017-01-02T21:27:52.374Z,99.52
2017-01-02T21:28:52.357Z,99.99
2017-01-02T21:29:52.342Z,99.99
2017-01-02T21:30:52.324Z,99.99
2017-01-02T21:31:52.308Z,99.33
2017-01-02T21:32:52.296Z,99.8
2017-01-02T21:33:52.275Z,99.99
2017-01-02T21:34:52.260Z,99.52
2017-01-02T21:35:52.245Z,99.89
2017-01-02T21:36:52.226Z,99.71
2017-01-02T21:37:52.215Z,99.71
2017-01-02T21:38:52.195Z,99.99
2017-01-02T21:39:52.180Z,99.42
2017-01-02T21:40:52.162Z,99.99
2017-01-02T21:41:52.533Z,99.71
2017-01-02T21:42:52.129Z,99.99
2017-01-02T21:43:52.114Z,99.42
2017-01-02T21:44:52.096Z,99.71
2017-01-02T21:45:52.081Z,99.61
2017-01-02T21:46:52.068Z,99.52
2017-01-02T21:47:52.047Z,99.8
2017-01-02T21:48:52.032Z,99.99
2017-01-02T21:49:52.017Z,99.99
2017-01-02T21:50:52.000Z,99.89
2017-01-02T21:51:51.983Z,99.99
2017-01-02T21:52:51.968Z,99.99
2017-01-02T21:53:51.953Z,99.99
2017-01-02T21:54:51.934Z,99.8
2017-01-02T21:55:51.920Z,99.99
2017-01-02T21:56:51.901Z,99.71
2017-01-02T21:57:51.886Z,99.99
2017-01-02T21:58:51.868Z,99.61
2017-01-02T21:59:51.852Z,99.23
2017-01-02T22:00:51.838Z,99.99
2017-01-02T22:01:51.820Z,99.61
2017-01-02T22:02:51.802Z,99.99
2017-01-02T22:03:51.788Z,99.99
2017-01-02T22:04:51.770Z,99.99
2017-01-02T22:05:51.756Z,99.99
2017-01-02T22:06:51.737Z,99.99
2017-01-02T22:07:51.723Z,99.99
2017-01-02T22:08:51.708Z,99.99
2017-01-02T22:09:51.688Z,99.99
2017-01-02T22:10:51.673Z,99.99
2017-01-02T22:11:52.042Z,99.99
2017-01-02T22:12:51.646Z,99.99
2017-01-02T22:13:51.623Z,99.99
2017-01-02T22:14:51.613Z,99.99
2017-01-02T22:15:51.592Z,99.99
2017-01-02T22:16:51.576Z,99.99
2017-01-02T22:17:51.560Z,99.99
2017-01-02T22:18:51.548Z,99.99
2017-01-02T22:19:51.528Z,99.99
2017-01-02T22:20:51.513Z,99.99
2017-01-02T22:21:51.493Z,99.99
2017-01-02T22:22:51.482Z,99.99
2017-01-02T22:23:51.466Z,99.99
2017-01-02T22:24:51.445Z,99.99
2017-01-02T22:25:51.430Z,99.99
2017-01-02T22:26:51.417Z,99.99
2017-01-02T22:27:51.399Z,99.99
2017-01-02T22:28:51.384Z,99.99
2017-01-02T22:29:51.370Z,99.99
2017-01-02T22:30:51.352Z,99.99
2017-01-02T22:31:51.365Z,99.99
2017-01-02T22:32:51.319Z,99.99
2017-01-02T22:33:51.303Z,99.99
2017-01-02T22:34:51.289Z,99.99
2017-01-02T22:35:51.272Z,99.99
2017-01-02T22:36:51.258Z,99.99
2017-01-02T22:37:51.240Z,99.99
2017-01-02T22:38:51.226Z,99.99
2017-01-02T22:39:51.211Z,99.99
2017-01-02T22:40:51.193Z,99.99
2017-01-02T22:41:51.181Z,99.99
2017-01-02T22:42:51.549Z,99.99
2017-01-02T22:43:51.153Z,99.99
2017-01-02T22:44:51.134Z,99.99
2017-01-02T22:45:51.115Z,99.99
2017-01-02T22:46:51.099Z,99.99
2017-01-02T22:47:51.084Z,99.99
2017-01-02T22:48:51.067Z,99.99
2017-01-02T22:49:51.051Z,99.99
2017-01-02T22:50:51.042Z,99.99
2017-01-02T22:51:51.023Z,99.99
2017-01-02T22:52:51.392Z,99.99
2017-01-02T22:53:50.992Z,99.99